XML Sitemap

This is a XML Sitemap which is supposed to be processed by search engines which follow the XML Sitemap standard like Ask.com, Bing, Google and Yahoo.
It was generated using the Blogging-Software WordPress and the Google Sitemap Generator Plugin by Arne Brachhold.
You can find more information about XML sitemaps on sitemaps.org and Google's list of sitemap programs.

URLPriorityChange frequencyLast modified (GMT)
https://www.naswgr.net/2015/02/27/9t58k2812-unused-surplus-in-box-ge-9t58k2812-core-coil-transformer/20%Monthly2015-02-27 21:10
https://www.naswgr.net/2015/02/27/hmcp025d0c-unused-surplus-cutler-hammer-hmcp025d0c-circuit-breaker-25-amp/20%Monthly2015-02-27 21:08
https://www.naswgr.net/2015/02/27/764x20g30-ge-764x20g30-potential-transformer/20%Monthly2015-02-27 18:10
https://www.naswgr.net/2015/02/26/66c2055g01-cutler-hammer-66c2055g01-electrical-distribution-system-meter-display/20%Monthly2015-02-26 14:58
https://www.naswgr.net/2015/02/25/702025-sc-702025-fuse-unit-25k-amps/20%Monthly2015-02-25 20:35
https://www.naswgr.net/2015/02/25/9f60klh125-ge-9f60klh125-fuse/20%Monthly2015-02-25 18:47
https://www.naswgr.net/2015/02/24/a4by2500-gould-a4by2500-fuse-2500-amps/20%Monthly2015-02-24 21:05
https://www.naswgr.net/2015/02/24/12iac51a1a-ge-12iac51a1a-relay-60-cycles/20%Monthly2015-02-24 20:18
https://www.naswgr.net/2015/02/24/12288c74g03-1288c76g09-bell-alarm-aux-switch-removed-from-mc3800/20%Monthly2015-02-24 16:46
https://www.naswgr.net/2015/02/24/15hk1000-ite-15hk1000-circuit-breaker-2000-amp-eo/20%Monthly2015-02-24 14:45
https://www.naswgr.net/2015/02/23/sts2-liebert-sts2-static-transfer-switch-sta0600a12-02-806151-01/20%Monthly2015-02-23 20:40
https://www.naswgr.net/2015/02/23/480120-240-ite-480120-240-current-transformer-5-kva/20%Monthly2015-02-23 19:59
https://www.naswgr.net/2015/02/23/dt25317-1-westinghouse-dt25317-1-relay/20%Monthly2015-02-23 17:27
https://www.naswgr.net/2015/02/23/cm-2250-square-d-power-logic-cm-2250-circuit-monitor-264-vdc/20%Monthly2015-02-23 16:16
https://www.naswgr.net/2015/02/23/cm208x1-square-d-cm208x1-circuit-motor-120-vac/20%Monthly2015-02-23 14:32
https://www.naswgr.net/2015/02/20/211-313-979-ite-211-313-979-fuse-15-5-kv/20%Monthly2015-02-20 21:13
https://www.naswgr.net/2015/02/20/401740-k5-piedmont-dielectrics-401740-k5-current-transformer-800-amps/20%Monthly2015-02-20 21:04
https://www.naswgr.net/2015/02/20/401740-k6-brown-boveri-401740-k6-current-transformer-1600-amps/20%Monthly2015-02-20 17:41
https://www.naswgr.net/2015/02/20/401717-k10-brown-boveri-401717-k10-current-transformer-4200-amps/20%Monthly2015-02-20 17:08
https://www.naswgr.net/2015/02/20/ed43b040-ite-ed43b040-circuit-breaker-40-amps/20%Monthly2015-02-20 16:38
https://www.naswgr.net/2015/02/20/5hk250-ite-5hk250-medium-voltage-circuit-breaker-1200-amp-eo/20%Monthly2015-02-20 15:27
https://www.naswgr.net/2015/02/20/ed63b125-ite-ed63b125-circuit-breaker-125-amps/20%Monthly2015-02-20 15:16
https://www.naswgr.net/2015/02/19/192906-t3-ite-192906-t3-puffer-tube-assembly/20%Monthly2015-02-19 18:53
https://www.naswgr.net/2015/02/19/191921-t11-bbe-191921-t11-control-device-assembly-208-240-vac/20%Monthly2015-02-19 17:14
https://www.naswgr.net/2015/02/19/fs152-ssac-fs152-solid-state-flasher-3-amps/20%Monthly2015-02-19 15:11
https://www.naswgr.net/2015/02/18/akrt-9d-50h-ge-akrt-9d-50h-circuit-breaker-2000-amps/20%Monthly2015-02-18 20:21
https://www.naswgr.net/2015/02/18/5hk350-ite-5hk350-circuit-breaker-1200-amp-eo/20%Monthly2015-02-19 19:17
https://www.naswgr.net/2015/02/17/703153-k5-ite-secondary-disconnect-assembly-moving/20%Monthly2015-02-17 17:08
https://www.naswgr.net/2015/02/17/ite-hk-250-500-finger-cluster-1200-amps/20%Monthly2015-02-17 15:11
https://www.naswgr.net/2015/02/16/akr-4ae-30-1-ge-akr-4ae-30-1-circuit-breaker-800-amp-eo/20%Monthly2015-02-16 16:35
https://www.naswgr.net/2015/02/16/akru-5a-50-ge-ark-5a-50-circuit-breakers-1600-amp-mo/20%Monthly2015-02-16 16:25
https://www.naswgr.net/2015/02/13/ic2814e221bc313a2-ge-ic2814e221bc313a2-ac-contactor-400-amps/20%Monthly2015-02-13 21:25
https://www.naswgr.net/2015/02/13/twp326-ge-twp326-panelboard-switch-600-amp/20%Monthly2015-02-13 20:39
https://www.naswgr.net/2015/02/13/140d045g02-westinghouse-140d045g02-fuse-type-cls-700/20%Monthly2015-02-13 20:36
https://www.naswgr.net/2015/02/13/lt3600t-eaton-cutler-hammer-lt3600t-thermal-magnetic-trip-unit/20%Monthly2015-02-13 16:40
https://www.naswgr.net/2015/02/12/mps-3g-bbc-mps-3g-micro-power-shield-lig/20%Monthly2015-02-12 18:52
https://www.naswgr.net/2015/02/09/62930116-13-ge-62930116-13-fuse-5-kv/20%Monthly2015-02-09 19:33
https://www.naswgr.net/2015/02/09/akr-6d-30h-ge-akr-6d-30h-circuit-breaker-800-amp-mo/20%Monthly2015-02-09 21:03
https://www.naswgr.net/2015/02/09/9f60bdd001-ge-eji-fuse-5-5-kv/20%Monthly2015-02-09 17:25
https://www.naswgr.net/2015/02/09/e22b2-cutler-hammer-e22b2-micro-switch/20%Monthly2015-02-09 16:27
https://www.naswgr.net/2015/02/09/s01mn6-siemens-s01mn6-shunt-trip-120-vac/20%Monthly2015-02-09 16:02
https://www.naswgr.net/2015/02/09/qa-4033-pringle-electric-qa-4033-switch-4000-amp/20%Monthly2015-02-09 16:06
https://www.naswgr.net/2015/02/09/gfcb120-cutler-hammer-gfcb120-plug-on-circuit-breaker-20-amps/20%Monthly2015-02-09 15:00
https://www.naswgr.net/2015/02/06/akru-5a-50-1-ge-akru-5a-50-1-circuit-breaker-1600-amp-mo-2/20%Monthly2015-02-06 20:20
https://www.naswgr.net/2015/02/06/arku-6d-50-ge-akru-6d-50-circuit-breaker-1600-amp-mo/20%Monthly2015-02-06 17:26
https://www.naswgr.net/2015/02/05/akru-5a-50-1-ge-akru-5a-50-1-circuit-breaker-1600-amp-mo/20%Monthly2015-02-05 20:50
https://www.naswgr.net/2015/02/04/akru-5a-30-ge-akru-5a-30-circuit-breaker-800-amp-eo/20%Monthly2015-02-04 18:03
https://www.naswgr.net/2015/02/04/12ncg1200-westinghouse-12ncg1200-rtg-plug-1200-amps/20%Monthly2015-02-04 16:25
https://www.naswgr.net/2015/02/04/a3lc300-westinghouse-a3lc300-rating-plug-300-amps/20%Monthly2015-02-04 15:22
https://www.naswgr.net/2015/02/03/uvh3lp21k-westinghouse-uvh3lp21k-uv-relay/20%Monthly2015-02-03 20:06
https://www.naswgr.net/2015/02/03/fcl3100l-westinghouse-fcl3100l-circuit-breaker-100-amps/20%Monthly2015-02-03 17:36
https://www.naswgr.net/2015/02/03/eb2070al-westinghouse-eb2070al-circuit-breaker-70-amps/20%Monthly2015-02-03 16:24
https://www.naswgr.net/2015/02/03/p30-h1-3-d-c-c-s-merlin-gerin-p30-h1-3-d-c-c-s-draw-out-frame-assembly/20%Monthly2015-02-03 15:53
https://www.naswgr.net/2015/02/02/mp30h1-merlin-gerin-mp30h1-circuit-breaker-3000-amp/20%Monthly2015-02-02 20:25
https://www.naswgr.net/2015/02/02/685763-merlin-gerin-mch-m-motor-mechanism/20%Monthly2015-02-02 20:45
https://www.naswgr.net/2015/02/02/mp08h1-merlin-gerin-mp08h1-circuit-breaker-800-amp/20%Monthly2015-02-02 18:35
https://www.naswgr.net/2015/02/02/33682-schneider-electric-33682-adjustable-delay-unit-200250-vac/20%Monthly2015-02-02 18:37
https://www.naswgr.net/2015/02/02/akru-5a-30-1-ge-akru-5a-30-1-circuit-breaker-800-amp-mo/20%Monthly2015-02-02 16:45